TAF Nordic - 23 Oct 2017 - 0947 UTC - RocketRoute WX - rrwx.com
EKYT 230830Z 2309/2406 08008KT 9999 BKN025 TEMPO 2309/2311 4000 -RA BR BKN006 TEMPO 2311/2322 7000 BKN012 TEMPO 2322/2406 2500 RADZ BR BKN004 EKAH AMD 230718Z 2306/2406 10006KT 9999 FEW008 BKN030 TEMPO 2307/2310 2000 SHRA BR BKN005 TEMPO 2310/2406 BKN010 EKBI 230509Z 2306/2406 08008KT 9999 FEW008 BKN030 TEMPO 2306/2309 3000 BR DZ BKN004 TEMPO 2309/2406 BKN008 BECMG 2321/2324 16008KT EKRN 230754Z 2309/2318 07005KT 9999 BKN030 TEMPO 2309/2318 BKN010 EKEB 230801Z 2309/2318 06008KT 8000 BKN020 TEMPO 2309/2310 4000 BR BKN004 TEMPO 2310/2318 BKN008 EKKA 230830Z 2309/2406 07005KT 9999 SCT030 TEMPO 2309/2312 7000 BKN008 TEMPO 2312/2318 7000 BKN012 TEMPO 2318/2324 2500 BR BKN004 BECMG 2323/2402 16008KT TEMPO 2400/2406 2500 RADZ BR BKN004 EKCH AMD 230635Z 2306/2406 09010KT 9999 FEW008 BKN030 TEMPO 2306/2310 4000 BR BKN005 TEMPO 2310/2324 BKN010 EKOD 230858Z 2309/2318 08005KT 8000 BKN030 TEMPO 2309/2318 BKN008 EKRK 230754Z 2309/2318 08006KT 9999 FEW008 BKN030 TEMPO 2309/2311 4000 BR BKN004 TEMPO 2311/2318 BKN008 EKSP 230825Z 2309/2406 08008KT 8000 SCT006 BKN020 TEMPO 2309/2310 2000 -SHRA BR BKN005 FEW020CB TEMPO 2310/2318 4000 -SHRA BKN005 SCT020CB TEMPO 2318/2403 0300 FG BKN002 TEMPO 2403/2406 2500 -RADZ BR BKN004 EKVD 230858Z 2309/2316 06005KT 3000 BR BKN004 BECMG 2309/2311 8000 NSW BKN020 TEMPO 2311/2315 BKN008 ESTA 230756Z 2309/2318 09008KT 8000 BR BKN004 TEMPO 2309/2313 BKN015 BECMG 2313/2315 BKN020 TEMPO 2315/2318 BKN008 ESNZ 230830Z 2309/2318 12012KT 9999 BKN030 PROB40 2309/2315 2500 -SN VV008 ESGP   ESGG 230530Z 2306/2406 07010KT 9999 BKN012 TEMPO 2306/2308 BKN009 BECMG 2308/2310 BKN040 ESMT 230756Z 2309/2318 08008KT 9999 BKN008 TEMPO 2309/2312 BKN012 BECMG 2312/2315 BKN015 TEMPO 2315/2318 BKN008 ESMQ 230830Z 2309/2318 06009KT 9000 -RA FEW007 BKN020 TEMPO 2309/2310 BKN011 ESNQ AMD 230923Z 2309/2318 21007KT 9999 BKN004 TEMPO 2309/2318 FEW004 ESPA COR 230831Z 2309/2318 35004KT CAVOK TEMPO 2310/2318 BKN012 RMK MIL ESMS AMD 230628Z 2306/2406 09008KT 9999 FEW008 BKN030 TEMPO 2306/2307 4000 -RADZ BKN004 TEMPO 2307/2310 2000 BR BKN002 TEMPO 2310/2324 BKN010 ESSL 230830Z 2309/2318 08013G20KT 9999 BKN030 TEMPO 2309/2318 8000 -SHRA FEW010 BKN018 BECMG 2313/2315 09008G14KT RMK MIL ESSA 230530Z 2306/2406 04009KT 9999 BKN040 PROB40 2306/2314 RA BKN014 ESSB 230830Z 2309/2318 04008KT 9999 SCT020 BKN030 PROB40 2309/2313 RA BKN014 ESKN 230530Z 2306/2406 05008KT 9999 SCT045 PROB40 2306/2316 RADZ ESNU 230830Z 2309/2318 04006KT 9999 BKN040 ESSV 230830Z 2309/2318 10014KT 9999 SCT025 ENAN 2306/2406 19008KT CAVOK ENAT 230800Z 2309/2318 16008KT CAVOK ENHF 230800Z 2309/2318 22008KT CAVOK ENDU 2306/2406 VRB05KT CAVOK ENBO 2306/2406 09018KT CAVOK ENEV 230800Z 2309/2318 15008KT CAVOK ENBR 2306/2406 09007KT 9999 FEW040 SCT070 BECMG 2316/2318 15012KT TEMPO 2320/2405 15015G25KT RA ENFL 230800Z 2309/2318 10010KT CAVOK ENGM 2306/2406 02005KT 9999 BKN040 BECMG 2402/2404 BKN012 TEMPO 2404/2406 4000 -RADZ BR BKN008 ENHD 230800Z 2309/2318 10005KT CAVOK BECMG 2310/2312 12015KT ENCN 230800Z 2309/2318 05015KT 9999 -RA BKN012 TEMPO 2309/2318 SCT012 BKN018 PROB40 TEMPO 2309/2315 06018G28KT ENTC 2306/2406 20008KT CAVOK ENFB   ENSB 2306/2406 22009KT 9999 -RA FEW010 BKN030 TEMPO 2306/2315 22015G25KT TEMPO 2306/2315 23025G40KT 4500 RA BKN012 BECMG 2313/2315 28015KT ENNK   ENRO 230800Z 2309/2318 14012KT 9999 BKN030 TEMPO 2309/2318 16015G25KT ENRY 2306/2406 06008KT 9999 BKN040 BECMG 2403/2405 12010KT TEMPO 2404/2406 BKN012 ENZV 2306/2406 09008KT 9999 FEW040 SCT060 BECMG 2318/2320 14020G30KT TEMPO 2321/2405 RA BECMG 2404/2406 16010KT ENVA 2306/2406 09008KT CAVOK TEMPO 2306/2310 15015G25KT BECMG 2310/2312 16012KT TEMPO 2310/2406 16020G30KT ENAL 230800Z 2309/2318 16008KT CAVOK EFET   EFTP 230831Z 2309/2409 03005KT 9999 SCT010 BKN015 TEMPO 2309/2310 BKN008 TEMPO 2318/2324 BKN012 PROB30 2403/2408 2000 BR BKN003 EFTU 230823Z 2309/2409 07007KT CAVOK PROB30 TEMPO 2403/2406 1000 BR BKN002 BIAR 230759Z 2309/2409 09010KT 9999 -RA FEW025 BKN035 OVC040 TX08/2314Z TN05/2406Z TEMPO 2315/2321 RA BKN015 OVC025 BECMG 2402/2405 03007KT TEMPO 2403/2409 5000 RADZ BKN010 OVC018 BIEG 230759Z 2309/2409 13015KT 9999 -RA BKN020 OVC030 TX09/2313Z TN05/2406Z TEMPO 2309/2318 11015G25KT 6000 DZRA BKN012 OVC015 BECMG 2318/2321 13008KT NSW BKN030 BECMG 2401/2404 03010KT 7000 RADZ SCT012 OVC020 BIKF 230759Z 2309/2409 08012KT 9999 FEW020 SCT035 BKN043 TX09/2315Z TN04/2406Z BECMG 2406/2409 CAVOK BIRK 230759Z 2309/2409 08010KT 9999 FEW025 SCT035 BKN045 TX10/2315Z TN03/2406Z BECMG 2406/2409 CAVOK BGJN 230804Z 2309/2318 08012KT 9999 BKN160 BGSF AMD 230907Z 2309/2323 06008KT 9999 BKN020 BECMG 2309/2312 FEW020 BGKK 230909Z 2309/2318 VRB08KT 9999 SCT100 TEMPO 2314/2318 -RA BKN060 BGBW 230941Z 2309/2318 VRB05KT 9999 FEW200 BGGH 230804Z 2309/2318 02010KT 9999 FEW200 BGTL AMD 230920Z 2309/2415 13025G40KT 4000 BLSN OVC015 620159 520303 QNH2967INS WND 090V160 BECMG 2317/2318 09030G40KT 6000 -SN BLSN SCT020 BKN050 620505 520303 QNH2957INS WND 050V120 BECMG 2323/2324 07035G45KT 3200 -SN OVC010 620109 530303 QNH2929INS WND 040V110 BECMG 2408/2409 08040G50KT 1200 -SN OVC010 620109 560303 QNH2919INS WND 040V120 TXM02/2409Z TNM06/2309Z BGSS  

RocketRoute WX - rrwx.com weather for pilots